Nearby METAR Reports

 

EDNY - Friedrichshafen, Germany
Distance from station: ONO 32km
aktuell: 20.04.2018 13:50
klar
klar
 Wind von SW
Wind: SW 9 km/h
Temperatur: 22°C
Taupunkt: 10°C
Luftfeuchte: 47%
Luftdruck: 1024 hPa
Zusammenfassung: klar
Visibility: greater than 10 km
2018/04/20 11:50 EDNY 201150Z 23005KT 190V260 CAVOK 22/10 Q1024
LSZR - Rheineck/Altenrh, Switzerland
Distance from station: OSO 37km
aktuell: 20.04.2018 14:20
klar
klar
 Wind von N
Wind: N 9 km/h
Temperatur: 21°C
Taupunkt: 6°C
Luftfeuchte: 38%
Luftdruck: 1024 hPa
Zusammenfassung: klar
Visibility: greater than 10 km
2018/04/20 12:20 LSZR 201220Z 01005KT CAVOK 21/06 Q1024 NOSIG RMK I
LSMD - Dubendorf, Switzerland
Distance from station: SW 40km
aktuell: 20.04.2018 13:50
klar
klar
 Wind von varies
Wind: varies 4 km/h
Temperatur: 23°C
Taupunkt: 8°C
Luftfeuchte: 38%
Luftdruck: 1024 hPa
Zusammenfassung: klar
Visibility: greater than 10 km
2018/04/20 11:50 LSMD 201150Z VRB02KT CAVOK 23/08 Q1024 RMK BLU
 
LSZH - Zurich-Kloten (a, Switzerland
Distance from station: WSW 44km
aktuell: 20.04.2018 14:20
klar
klar
 Wind von varies
Wind: varies 4 km/h
Temperatur: 25°C
Taupunkt: 9°C
Luftfeuchte: 36%
Luftdruck: 1024 hPa
Zusammenfassung: klar
Visibility: greater than 10 km
2018/04/20 12:20 LSZH 201220Z VRB02KT CAVOK 25/09 Q1024 NOSIG
LOIH - Hohenems-Dornbir, Austria
Distance from station: OSO 51km
aktuell: 31.10.2016 17:00
NOT Current
geschlossene Wolkendecke
geschlossene Wolkendecke
 Wind von calm
Wind: Windstill
Temperatur: 10°C
Taupunkt: 9°C
Luftfeuchte: 94%
Luftdruck: 1026 hPa
Clouds: geschlossene Wolkendecke
Cloud details: geschlossene Wolkendecke 305 m
2016/10/31 16:00 LOIH 311600Z 00000KT 10KM OVC010ST 10/09 Q1026 RMK OVC
LSME - Emmen, Switzerland
Distance from station: SW 82km
aktuell: 20.04.2018 13:50
klar
klar
 Wind von ONO
Wind: ONO 7 km/h
Temperatur: 23°C
Taupunkt: 12°C
Luftfeuchte: 50%
Luftdruck: 1024 hPa
Zusammenfassung: klar
Visibility: greater than 10 km
2018/04/20 11:50 LSME 201150Z 06004KT 360V160 CAVOK 23/12 Q1024 RMK BLU
 
LSZC - Buochs, Switzerland
Distance from station: SW 89km
aktuell: 20.04.2018 14:20
klar
klar
 Wind von ONO
Wind: ONO 7 km/h
Temperatur: 22°C
Taupunkt: 11°C
Luftfeuchte: 50%
Luftdruck: 1024 hPa
Zusammenfassung: klar
Visibility: greater than 10 km
2018/04/20 12:20 LSZC 201220Z 06004KT CAVOK 22/11 Q1024
ETHL - Laupheim (ger-Ar, Germany
Distance from station: NO 92km
aktuell: 20.04.2018 13:20
Few Clouds
Few Clouds
 Wind von ONO
Wind: ONO 4 km/h
Temperatur: 22°C
Taupunkt: 9°C
Luftfeuchte: 44%
Luftdruck: 1024 hPa
Clouds: Few Clouds
Visibility: 10 km
Cloud details: Few Clouds 8839 m
2018/04/20 11:20 ETHL 201120Z 06002KT 9999 FEW290 22/09 Q1024 BLU+
EDJA - Memmingen Allgau, Germany
Distance from station: ONO 95km
aktuell: 20.04.2018 13:50
klar
klar
 Wind von varies
Wind: varies 6 km/h
Temperatur: 23°C
Taupunkt: 7°C
Luftfeuchte: 36%
Luftdruck: 1025 hPa
Zusammenfassung: klar
Visibility: greater than 10 km
2018/04/20 11:50 EDJA 201150Z VRB03KT CAVOK 23/07 Q1025
 
LSMA - Alpnach, Switzerland
Distance from station: SW 95km
aktuell: 20.04.2018 13:50
klar
klar
 Wind von NO
Wind: NO 13 km/h
Temperatur: 22°C
Taupunkt: 11°C
Luftfeuchte: 50%
Luftdruck: 1024 hPa
Zusammenfassung: klar
Visibility: greater than 10 km
2018/04/20 11:50 LSMA 201150Z 05007KT CAVOK 22/11 Q1024 RMK BLU